createdAt,value
2023-04-08T00:02:27.841Z,25.27
2023-04-08T00:04:56.263Z,25.88
2023-04-08T00:07:24.574Z,24.48
2023-04-08T00:09:51.786Z,25.20
2023-04-08T00:12:19.510Z,24.35
2023-04-08T00:14:47.137Z,25.55
2023-04-08T00:17:14.369Z,24.85
2023-04-08T00:19:41.580Z,22.60
2023-04-08T00:22:08.914Z,25.40
2023-04-08T00:24:36.930Z,22.45
2023-04-08T00:27:04.806Z,23.35
2023-04-08T00:29:32.813Z,24.50
2023-04-08T00:32:00.008Z,23.77
2023-04-08T00:34:28.754Z,24.90
2023-04-08T00:36:56.376Z,22.90
2023-04-08T00:39:26.897Z,24.75
2023-04-08T00:41:54.940Z,24.77
2023-04-08T00:44:22.199Z,24.67
2023-04-08T00:46:49.468Z,23.38
2023-04-08T00:49:17.622Z,25.40
2023-04-08T00:51:44.922Z,24.25
2023-04-08T00:54:12.124Z,24.90
2023-04-08T00:56:39.555Z,26.02
2023-04-08T00:59:06.704Z,25.05
2023-04-08T01:02:30.020Z,26.42
2023-04-08T01:05:20.282Z,26.25
2023-04-08T01:07:49.181Z,25.90
2023-04-08T01:10:27.424Z,27.15
2023-04-08T01:13:05.106Z,28.45
2023-04-08T01:15:32.869Z,24.95
2023-04-08T01:18:02.546Z,26.75
2023-04-08T01:20:29.915Z,30.15
2023-04-08T01:23:01.322Z,26.40
2023-04-08T01:25:38.494Z,27.45
2023-04-08T01:28:12.407Z,25.70
2023-04-08T01:30:42.906Z,26.00
2023-04-08T01:33:12.414Z,28.45
2023-04-08T01:35:39.889Z,28.55
2023-04-08T01:38:14.058Z,31.65
2023-04-08T01:40:42.652Z,29.77
2023-04-08T01:43:13.009Z,30.25
2023-04-08T01:45:40.281Z,29.08
2023-04-08T01:48:07.914Z,31.02
2023-04-08T01:50:35.909Z,32.03
2023-04-08T01:53:03.130Z,31.58
2023-04-08T01:55:30.367Z,31.08
2023-04-08T01:58:02.666Z,29.92
2023-04-08T02:00:30.797Z,32.03
2023-04-08T02:02:59.259Z,35.15
2023-04-08T02:05:27.214Z,33.40
2023-04-08T02:07:54.841Z,37.03
2023-04-08T02:10:22.130Z,33.83
2023-04-08T02:12:51.945Z,35.33
2023-04-08T02:15:19.183Z,35.65
2023-04-08T02:17:56.275Z,34.10
2023-04-08T02:20:40.007Z,31.15
2023-04-08T02:23:19.647Z,34.55
2023-04-08T02:25:47.861Z,36.80
2023-04-08T02:28:18.137Z,40.10
2023-04-08T02:30:50.447Z,36.88
2023-04-08T02:33:22.351Z,39.45
2023-04-08T02:35:55.112Z,38.15
2023-04-08T02:38:24.276Z,39.80
2023-04-08T02:40:51.770Z,36.03
2023-04-08T02:43:21.415Z,36.25
2023-04-08T02:45:48.824Z,36.33
2023-04-08T02:48:16.903Z,35.58
2023-04-08T02:50:44.105Z,35.85
2023-04-08T02:53:11.386Z,36.85
2023-04-08T02:55:39.633Z,38.92
2023-04-08T02:58:06.878Z,36.80
2023-04-08T03:00:34.112Z,39.88
2023-04-08T03:03:02.004Z,37.42
2023-04-08T03:05:32.819Z,38.50
2023-04-08T03:07:59.990Z,37.92
2023-04-08T03:10:27.221Z,36.95
2023-04-08T03:12:54.432Z,39.05
2023-04-08T03:15:21.628Z,41.22
2023-04-08T03:17:49.227Z,39.72
2023-04-08T03:20:16.684Z,40.40
2023-04-08T03:22:44.471Z,39.15
2023-04-08T03:25:11.914Z,38.13
2023-04-08T03:27:40.124Z,39.90
2023-04-08T03:30:08.307Z,42.88
2023-04-08T03:32:36.338Z,41.60
2023-04-08T03:35:04.989Z,45.30
2023-04-08T03:37:32.499Z,45.35
2023-04-08T03:39:59.917Z,43.05
2023-04-08T03:42:27.737Z,42.97
2023-04-08T03:44:55.082Z,41.38
2023-04-08T03:47:22.765Z,41.10
2023-04-08T03:49:49.997Z,46.83
2023-04-08T03:52:17.215Z,41.58
2023-04-08T03:54:44.352Z,49.33
2023-04-08T03:57:12.276Z,45.17
2023-04-08T03:59:41.103Z,41.65
2023-04-08T04:02:09.802Z,50.40
2023-04-08T04:04:37.681Z,44.25
2023-04-08T04:07:05.083Z,45.85
2023-04-08T04:09:32.903Z,47.92
2023-04-08T04:12:00.116Z,46.10
2023-04-08T04:14:27.847Z,47.58
2023-04-08T04:16:55.170Z,45.95
2023-04-08T04:19:23.781Z,45.00
2023-04-08T04:21:51.351Z,45.05
2023-04-08T04:24:18.580Z,47.55
2023-04-08T04:26:46.848Z,42.80
2023-04-08T04:29:14.089Z,43.92
2023-04-08T04:31:41.276Z,45.38
2023-04-08T04:34:08.940Z,47.05
2023-04-08T04:36:36.806Z,43.03
2023-04-08T04:39:04.264Z,42.28
2023-04-08T04:41:31.817Z,43.75
2023-04-08T04:43:59.471Z,42.35
2023-04-08T04:46:27.806Z,43.65
2023-04-08T04:48:56.644Z,39.60
2023-04-08T04:51:24.215Z,41.38
2023-04-08T04:53:51.681Z,38.30
2023-04-08T04:56:18.971Z,41.28
2023-04-08T04:58:46.400Z,45.13
2023-04-08T05:01:13.686Z,41.80
2023-04-08T05:03:41.280Z,39.30
2023-04-08T05:06:08.820Z,40.65
2023-04-08T05:08:35.972Z,39.85
2023-04-08T05:11:03.265Z,35.67
2023-04-08T05:13:31.116Z,39.95
2023-04-08T05:15:58.782Z,39.70
2023-04-08T05:18:26.005Z,41.45
2023-04-08T05:20:54.044Z,38.42
2023-04-08T05:23:21.253Z,39.25
2023-04-08T05:25:48.467Z,40.63
2023-04-08T05:28:16.399Z,38.55
2023-04-08T05:30:43.673Z,41.33
2023-04-08T05:33:11.090Z,43.63
2023-04-08T05:35:38.848Z,39.42
2023-04-08T05:38:06.750Z,39.08
2023-04-08T05:40:34.090Z,41.08
2023-04-08T05:43:01.823Z,38.95
2023-04-08T05:45:29.333Z,40.58
2023-04-08T05:47:56.641Z,39.83
2023-04-08T05:50:23.930Z,40.70
2023-04-08T05:52:51.386Z,40.05
2023-04-08T05:55:18.670Z,42.40
2023-04-08T05:57:46.020Z,38.83
2023-04-08T06:00:13.521Z,39.17
2023-04-08T06:02:41.011Z,37.85
2023-04-08T06:05:09.107Z,41.72
2023-04-08T06:07:36.370Z,40.47
2023-04-08T06:10:05.879Z,39.28
2023-04-08T06:12:37.785Z,39.83
2023-04-08T06:15:08.880Z,35.35
2023-04-08T06:17:38.291Z,37.50
2023-04-08T06:20:06.836Z,33.75
2023-04-08T06:22:34.084Z,34.85
2023-04-08T06:25:02.007Z,37.65
2023-04-08T06:27:31.319Z,37.15
2023-04-08T06:29:58.620Z,35.47
2023-04-08T06:32:25.994Z,36.30
2023-04-08T06:34:53.770Z,37.17
2023-04-08T06:37:21.084Z,33.95
2023-04-08T06:39:48.357Z,35.70
2023-04-08T06:42:17.539Z,38.03
2023-04-08T06:45:08.626Z,36.97
2023-04-08T06:47:36.006Z,35.97
2023-04-08T06:50:04.243Z,32.08
2023-04-08T06:52:33.174Z,32.70
2023-04-08T06:55:00.728Z,35.78
2023-04-08T06:57:29.821Z,33.15
2023-04-08T06:59:57.931Z,34.00
2023-04-08T07:02:25.611Z,31.98
2023-04-08T07:04:53.139Z,33.60
2023-04-08T07:07:20.397Z,36.97
2023-04-08T07:09:47.729Z,34.38
2023-04-08T07:12:15.079Z,34.60
2023-04-08T07:14:42.381Z,34.60
2023-04-08T07:17:09.677Z,35.85
2023-04-08T07:19:37.821Z,34.88
2023-04-08T07:22:05.459Z,31.85
2023-04-08T07:24:35.020Z,31.85
2023-04-08T07:27:03.172Z,33.05
2023-04-08T07:29:30.410Z,32.42
2023-04-08T07:31:58.199Z,31.83
2023-04-08T07:34:33.359Z,31.80
2023-04-08T07:37:01.775Z,33.05
2023-04-08T07:39:30.405Z,32.00
2023-04-08T07:41:57.671Z,33.95
2023-04-08T07:44:24.896Z,37.97
2023-04-08T07:46:52.169Z,39.20
2023-04-08T07:49:19.377Z,37.17
2023-04-08T07:51:46.763Z,38.20
2023-04-08T07:54:17.323Z,38.40
2023-04-08T07:56:44.889Z,34.75
2023-04-08T07:59:12.515Z,37.55
2023-04-08T08:01:41.849Z,36.53
2023-04-08T08:04:09.302Z,37.67
2023-04-08T08:06:37.029Z,37.28
2023-04-08T08:09:05.184Z,40.10
2023-04-08T08:11:33.127Z,39.53
2023-04-08T08:14:02.687Z,37.35
2023-04-08T08:16:30.597Z,40.83
2023-04-08T08:18:58.446Z,40.72
2023-04-08T08:21:27.393Z,39.63
2023-04-08T08:23:58.520Z,37.08
2023-04-08T08:26:26.152Z,37.70
2023-04-08T08:28:55.801Z,37.63
2023-04-08T08:31:23.154Z,37.88
2023-04-08T08:33:50.931Z,38.88
2023-04-08T08:36:18.675Z,38.35
2023-04-08T08:38:46.189Z,36.97
2023-04-08T08:41:13.364Z,36.55
2023-04-08T08:43:40.724Z,36.03
2023-04-08T08:46:14.195Z,35.53
2023-04-08T08:48:41.454Z,35.40
2023-04-08T08:51:10.989Z,35.75
2023-04-08T08:53:38.687Z,34.55
2023-04-08T08:56:17.971Z,34.28
2023-04-08T08:58:49.580Z,31.77
2023-04-08T09:01:38.057Z,30.80
2023-04-08T09:04:16.952Z,32.22
2023-04-08T09:06:51.589Z,32.97
2023-04-08T09:09:19.027Z,31.90
2023-04-08T09:11:47.702Z,33.22
2023-04-08T09:14:24.343Z,36.20
2023-04-08T09:16:52.138Z,36.88
2023-04-08T09:19:19.556Z,38.28
2023-04-08T09:21:47.715Z,40.03
2023-04-08T09:24:31.061Z,38.20
2023-04-08T09:26:58.411Z,38.15
2023-04-08T09:29:31.424Z,36.22
2023-04-08T09:32:02.473Z,39.22
2023-04-08T09:34:32.463Z,38.47
2023-04-08T09:36:59.855Z,34.05
2023-04-08T09:39:27.782Z,34.38
2023-04-08T09:41:56.222Z,34.38
2023-04-08T09:44:23.619Z,34.97
2023-04-08T09:46:52.002Z,35.22
2023-04-08T09:49:28.790Z,33.00
2023-04-08T09:52:14.040Z,31.67
2023-04-08T09:54:49.616Z,31.40
2023-04-08T09:57:22.611Z,31.30
2023-04-08T10:00:17.669Z,31.10
2023-04-08T10:03:26.398Z,31.77
2023-04-08T10:05:54.293Z,26.25
2023-04-08T10:08:21.726Z,29.20
2023-04-08T10:10:48.988Z,29.33
2023-04-08T10:13:16.272Z,25.05
2023-04-08T10:15:44.337Z,25.02
2023-04-08T10:18:11.783Z,21.33
2023-04-08T10:20:45.600Z,23.33
2023-04-08T10:23:14.255Z,20.13
2023-04-08T10:25:43.493Z,23.13
2023-04-08T10:28:20.312Z,25.55
2023-04-08T10:30:52.020Z,24.30
2023-04-08T10:33:22.421Z,21.05
2023-04-08T10:36:12.095Z,20.60
2023-04-08T10:38:39.818Z,20.70
2023-04-08T10:41:07.146Z,19.10
2023-04-08T10:43:34.961Z,19.50
2023-04-08T10:46:02.598Z,18.52
2023-04-08T10:48:30.160Z,18.08
2023-04-08T10:51:04.132Z,18.25
2023-04-08T10:53:33.947Z,16.85
2023-04-08T10:56:17.934Z,16.25
2023-04-08T10:58:50.159Z,16.75
2023-04-08T11:01:17.571Z,17.00
2023-04-08T11:03:45.496Z,16.88
2023-04-08T11:06:12.945Z,19.92
2023-04-08T11:08:45.397Z,19.63
2023-04-08T11:11:12.678Z,18.42
2023-04-08T11:13:51.278Z,18.27
2023-04-08T11:16:23.332Z,17.52
2023-04-08T11:18:53.340Z,18.63
2023-04-08T11:21:22.339Z,17.80
2023-04-08T11:23:53.526Z,17.38
2023-04-08T11:26:22.142Z,17.83
2023-04-08T11:28:50.903Z,14.85
2023-04-08T11:31:20.587Z,16.08
2023-04-08T11:33:49.725Z,16.45
2023-04-08T11:36:22.886Z,16.00
2023-04-08T11:38:53.008Z,15.13
2023-04-08T11:41:38.283Z,13.90
2023-04-08T11:44:07.069Z,16.25
2023-04-08T11:46:35.502Z,13.55
2023-04-08T11:49:08.171Z,13.15
2023-04-08T11:51:54.053Z,11.70
2023-04-08T11:54:32.811Z,10.98
2023-04-08T11:57:03.056Z,10.88
2023-04-08T11:59:30.359Z,11.25
2023-04-08T12:01:57.835Z,11.35
2023-04-08T12:04:25.588Z,10.15
2023-04-08T12:06:53.400Z,10.38
2023-04-08T12:09:20.629Z,10.30
2023-04-08T12:11:47.947Z,9.48
2023-04-08T12:14:15.412Z,10.10
2023-04-08T12:16:42.785Z,10.15
2023-04-08T12:19:10.633Z,10.57
2023-04-08T12:21:38.396Z,9.13
2023-04-08T12:24:05.896Z,10.00
2023-04-08T12:26:33.169Z,9.80
2023-04-08T12:29:01.283Z,10.18
2023-04-08T12:31:28.866Z,10.98
2023-04-08T12:33:56.134Z,10.80
2023-04-08T12:36:23.378Z,10.48
2023-04-08T12:38:51.871Z,10.40
2023-04-08T12:41:19.447Z,10.93
2023-04-08T12:43:47.778Z,12.07
2023-04-08T12:46:15.009Z,12.32
2023-04-08T12:48:42.498Z,12.13
2023-04-08T12:51:10.612Z,12.32
2023-04-08T12:53:39.960Z,13.82
2023-04-08T12:56:08.783Z,13.70
2023-04-08T12:58:37.366Z,13.60
2023-04-08T13:01:04.684Z,13.38
2023-04-08T13:03:32.088Z,13.93
2023-04-08T13:05:59.917Z,12.98
2023-04-08T13:08:27.784Z,12.50
2023-04-08T13:10:55.811Z,13.45
2023-04-08T13:13:23.098Z,13.15
2023-04-08T13:15:52.488Z,13.55
2023-04-08T13:18:21.116Z,13.93
2023-04-08T13:20:48.395Z,14.20
2023-04-08T13:23:17.935Z,13.68
2023-04-08T13:25:48.737Z,13.95
2023-04-08T13:28:19.308Z,14.90
2023-04-08T13:30:52.275Z,15.40
2023-04-08T13:33:19.797Z,13.98
2023-04-08T13:35:48.868Z,13.73
2023-04-08T13:38:18.498Z,14.65
2023-04-08T13:40:47.543Z,16.80
2023-04-08T13:43:16.373Z,15.13
2023-04-08T13:45:44.652Z,14.02
2023-04-08T13:48:12.420Z,16.27
2023-04-08T13:50:40.446Z,16.08
2023-04-08T13:53:08.107Z,15.98
2023-04-08T13:55:35.700Z,16.48
2023-04-08T13:58:06.596Z,17.42
2023-04-08T14:00:38.892Z,17.27
2023-04-08T14:03:06.373Z,16.38
2023-04-08T14:05:34.712Z,16.05
2023-04-08T14:08:02.138Z,16.02
2023-04-08T14:10:29.322Z,17.60
2023-04-08T14:12:56.569Z,16.65
2023-04-08T14:15:24.767Z,17.88
2023-04-08T14:17:54.643Z,17.92
2023-04-08T14:20:21.893Z,17.80
2023-04-08T14:22:49.711Z,18.48
2023-04-08T14:25:18.593Z,17.80
2023-04-08T14:27:57.244Z,17.80
2023-04-08T14:30:25.141Z,18.40
2023-04-08T14:32:59.023Z,17.48
2023-04-08T14:35:26.383Z,18.27
2023-04-08T14:37:55.027Z,19.15
2023-04-08T14:40:22.438Z,17.98
2023-04-08T14:42:50.803Z,17.73
2023-04-08T14:45:18.182Z,18.40
2023-04-08T14:47:46.106Z,19.50
2023-04-08T14:50:13.489Z,17.98
2023-04-08T14:52:45.212Z,18.77
2023-04-08T14:55:12.750Z,18.20
2023-04-08T14:57:40.062Z,20.50
2023-04-08T15:00:08.607Z,19.65
2023-04-08T15:02:36.075Z,20.08
2023-04-08T15:05:04.896Z,20.45
2023-04-08T15:07:32.263Z,19.75
2023-04-08T15:09:59.419Z,21.65
2023-04-08T15:12:27.259Z,21.00
2023-04-08T15:14:54.782Z,22.00
2023-04-08T15:17:28.509Z,23.50
2023-04-08T15:19:59.167Z,22.15
2023-04-08T15:22:28.634Z,23.95
2023-04-08T15:25:00.616Z,24.70
2023-04-08T15:27:34.851Z,22.63
2023-04-08T15:30:04.388Z,21.25
2023-04-08T15:32:32.517Z,21.27
2023-04-08T15:35:00.869Z,23.67
2023-04-08T15:37:28.556Z,23.77
2023-04-08T15:39:56.821Z,23.75
2023-04-08T15:42:24.153Z,23.80
2023-04-08T15:44:53.819Z,26.00
2023-04-08T15:47:22.248Z,23.58
2023-04-08T15:49:57.181Z,23.77
2023-04-08T15:52:27.858Z,25.40
2023-04-08T15:54:58.240Z,23.57
2023-04-08T15:57:33.356Z,21.42
2023-04-08T16:02:50.462Z,24.08
2023-04-08T16:05:18.022Z,23.67
2023-04-08T16:07:46.702Z,25.15
2023-04-08T16:10:14.013Z,24.20
2023-04-08T16:12:41.335Z,22.10
2023-04-08T16:15:09.158Z,22.77
2023-04-08T16:17:37.008Z,22.40
2023-04-08T16:20:05.202Z,23.20
2023-04-08T16:22:33.307Z,23.20
2023-04-08T16:25:01.248Z,23.60
2023-04-08T16:27:28.501Z,22.95
2023-04-08T16:29:57.371Z,24.80
2023-04-08T16:32:25.271Z,25.13
2023-04-08T16:34:52.774Z,24.40
2023-04-08T16:37:20.315Z,26.63
2023-04-08T16:39:51.678Z,22.05
2023-04-08T16:42:19.182Z,23.23
2023-04-08T16:44:46.450Z,23.30
2023-04-08T16:47:13.840Z,24.17
2023-04-08T16:49:41.397Z,22.50
2023-04-08T16:52:10.177Z,26.30
2023-04-08T16:54:37.419Z,24.80
2023-04-08T16:57:04.976Z,26.20
2023-04-08T16:59:34.787Z,24.15
2023-04-08T17:02:04.896Z,26.58
2023-04-08T17:04:32.717Z,24.55
2023-04-08T17:07:03.402Z,26.88
2023-04-08T17:09:32.009Z,28.73
2023-04-08T17:11:59.653Z,27.65
2023-04-08T17:14:27.852Z,27.50
2023-04-08T17:16:55.853Z,26.35
2023-04-08T17:19:23.589Z,26.02
2023-04-08T17:21:51.981Z,27.88
2023-04-08T17:24:19.566Z,24.38
2023-04-08T17:26:46.922Z,27.05
2023-04-08T17:29:14.453Z,25.95
2023-04-08T17:31:44.875Z,24.92
2023-04-08T17:34:12.796Z,25.27
2023-04-08T17:36:40.694Z,27.73
2023-04-08T17:39:08.358Z,25.83
2023-04-08T17:41:40.494Z,25.67
2023-04-08T17:44:08.836Z,26.05
2023-04-08T17:46:39.120Z,25.70
2023-04-08T17:49:07.928Z,24.65
2023-04-08T17:51:37.974Z,27.20
2023-04-08T17:54:13.451Z,27.55
2023-04-08T17:56:44.650Z,29.08
2023-04-08T17:59:12.856Z,26.88
2023-04-08T18:01:44.286Z,28.10
2023-04-08T18:04:12.511Z,30.33
2023-04-08T18:06:40.326Z,29.88
2023-04-08T18:09:09.246Z,31.58
2023-04-08T18:12:10.073Z,31.80
2023-04-08T18:14:37.988Z,32.17
2023-04-08T18:17:06.270Z,32.53
2023-04-08T18:19:36.193Z,32.80
2023-04-08T18:22:03.653Z,34.97
2023-04-08T18:24:31.029Z,32.63
2023-04-08T18:27:04.531Z,32.33
2023-04-08T18:29:34.719Z,31.85
2023-04-08T18:32:06.377Z,31.85
2023-04-08T18:34:36.201Z,31.50
2023-04-08T18:37:04.111Z,32.75
2023-04-08T18:39:31.492Z,32.67
2023-04-08T18:41:59.255Z,33.20
2023-04-08T18:44:28.589Z,31.13
2023-04-08T18:46:57.043Z,33.00
2023-04-08T18:49:24.939Z,34.92
2023-04-08T18:52:03.199Z,33.97
2023-04-08T18:54:37.115Z,34.50
2023-04-08T18:57:06.192Z,32.95
2023-04-08T18:59:33.432Z,33.58
2023-04-08T19:02:01.770Z,33.58
2023-04-08T19:04:33.928Z,36.47
2023-04-08T19:09:34.563Z,36.10
2023-04-08T19:12:02.293Z,32.80
2023-04-08T19:14:37.036Z,30.85
2023-04-08T19:17:04.272Z,31.88
2023-04-08T19:19:37.221Z,39.42
2023-04-08T19:22:09.685Z,34.78
2023-04-08T19:24:37.658Z,33.97
2023-04-08T19:27:08.417Z,33.75
2023-04-08T19:29:38.537Z,36.15
2023-04-08T19:32:08.778Z,32.95
2023-04-08T19:34:39.370Z,35.08
2023-04-08T19:37:08.625Z,34.15
2023-04-08T19:39:37.067Z,34.85
2023-04-08T19:42:06.346Z,35.95
2023-04-08T19:44:33.898Z,35.10
2023-04-08T19:47:01.625Z,33.55
2023-04-08T19:49:32.712Z,35.90
2023-04-08T19:52:04.047Z,34.90
2023-04-08T19:54:36.062Z,37.80
2023-04-08T19:57:12.320Z,34.88
2023-04-08T19:59:58.167Z,46.22
2023-04-08T20:02:25.909Z,36.72
2023-04-08T20:04:53.733Z,37.65
2023-04-08T20:07:21.044Z,41.97
2023-04-08T20:09:51.090Z,36.72
2023-04-08T20:12:21.259Z,39.67
2023-04-08T20:14:50.830Z,36.63
2023-04-08T20:17:20.866Z,37.55
2023-04-08T20:19:51.747Z,38.97
2023-04-08T20:22:19.082Z,35.60
2023-04-08T20:24:49.737Z,38.03
2023-04-08T20:27:20.134Z,36.60
2023-04-08T20:29:50.630Z,38.10
2023-04-08T20:32:18.107Z,37.47
2023-04-08T20:34:45.528Z,37.95
2023-04-08T20:37:12.673Z,37.97
2023-04-08T20:39:40.090Z,39.22
2023-04-08T20:42:09.663Z,39.95
2023-04-08T20:44:37.396Z,39.47
2023-04-08T20:47:05.326Z,37.70
2023-04-08T20:49:38.241Z,37.38
2023-04-08T20:52:05.880Z,36.67
2023-04-08T20:54:33.099Z,39.03
2023-04-08T20:57:02.030Z,40.15
2023-04-08T20:59:29.235Z,39.30
2023-04-08T21:01:56.685Z,37.80
2023-04-08T21:04:24.547Z,39.25
2023-04-08T21:06:52.110Z,40.75
2023-04-08T21:09:19.459Z,43.63
2023-04-08T21:11:46.781Z,41.95
2023-04-08T21:14:13.992Z,45.38
2023-04-08T21:16:41.306Z,41.72
2023-04-08T21:19:08.789Z,39.08
2023-04-08T21:21:36.562Z,40.50
2023-04-08T21:24:04.947Z,36.95
2023-04-08T21:26:32.226Z,38.00
2023-04-08T21:28:59.567Z,41.47
2023-04-08T21:31:27.383Z,38.83
2023-04-08T21:33:55.017Z,42.00
2023-04-08T21:36:22.352Z,41.08
2023-04-08T21:38:49.642Z,39.42
2023-04-08T21:41:18.674Z,40.03
2023-04-08T21:43:47.796Z,38.53
2023-04-08T21:46:15.816Z,38.35
2023-04-08T21:48:47.490Z,35.97
2023-04-08T21:51:19.324Z,41.42
2023-04-08T21:53:47.034Z,38.90
2023-04-08T21:56:17.867Z,39.28
2023-04-08T21:58:48.148Z,41.33
2023-04-08T22:01:16.791Z,40.45
2023-04-08T22:03:44.869Z,36.63
2023-04-08T22:06:19.163Z,42.45
2023-04-08T22:08:53.067Z,42.08
2023-04-08T22:11:20.898Z,40.30
2023-04-08T22:13:48.262Z,43.95
2023-04-08T22:16:15.520Z,42.60
2023-04-08T22:18:42.707Z,41.88
2023-04-08T22:21:10.142Z,43.60
2023-04-08T22:23:37.313Z,43.30
2023-04-08T22:26:04.941Z,41.50
2023-04-08T22:28:44.152Z,43.97
2023-04-08T22:31:12.294Z,56.03
2023-04-08T22:33:40.175Z,48.33
2023-04-08T22:36:08.167Z,50.80
2023-04-08T22:38:35.791Z,46.17
2023-04-08T22:41:03.096Z,48.45
2023-04-08T22:43:30.793Z,48.20
2023-04-08T22:45:58.018Z,51.20
2023-04-08T22:48:25.940Z,50.67
2023-04-08T22:50:55.840Z,48.88
2023-04-08T22:53:26.152Z,44.95
2023-04-08T22:55:53.962Z,47.25
2023-04-08T22:58:21.699Z,42.25
2023-04-08T23:00:48.950Z,44.63
2023-04-08T23:03:16.442Z,47.60
2023-04-08T23:05:43.652Z,49.53
2023-04-08T23:08:13.441Z,53.03
2023-04-08T23:10:40.867Z,48.97
2023-04-08T23:13:08.259Z,48.63
2023-04-08T23:15:35.576Z,58.40
2023-04-08T23:18:02.794Z,68.28
2023-04-08T23:20:30.038Z,58.90
2023-04-08T23:22:57.297Z,61.25
2023-04-08T23:25:24.629Z,88.97
2023-04-08T23:27:51.894Z,101.97
2023-04-08T23:30:19.135Z,77.38
2023-04-08T23:32:47.158Z,62.03
2023-04-08T23:35:16.480Z,69.50
2023-04-08T23:37:43.677Z,82.70
2023-04-08T23:40:11.121Z,58.22
2023-04-08T23:42:38.459Z,54.08
2023-04-08T23:45:06.604Z,53.05
2023-04-08T23:47:33.898Z,50.63
2023-04-08T23:50:01.860Z,49.08
2023-04-08T23:52:31.562Z,52.67
2023-04-08T23:54:58.763Z,52.85
2023-04-08T23:57:25.981Z,51.92
2023-04-08T23:59:53.811Z,56.03
